sensor_id;sensor_type;location;lat;lon;timestamp;P1;durP1;ratioP1;P2;durP2;ratioP2
64712;SDS011;51140;45.340;5.980;2023-02-08T00:01:27;17.70;;;8.15;;
64712;SDS011;51140;45.340;5.980;2023-02-08T00:03:52;18.40;;;9.65;;
64712;SDS011;51140;45.340;5.980;2023-02-08T00:06:18;21.02;;;10.85;;
64712;SDS011;51140;45.340;5.980;2023-02-08T00:08:44;20.52;;;10.32;;
64712;SDS011;51140;45.340;5.980;2023-02-08T00:11:10;18.55;;;9.60;;
64712;SDS011;51140;45.340;5.980;2023-02-08T00:13:36;18.33;;;9.43;;
64712;SDS011;51140;45.340;5.980;2023-02-08T00:16:03;18.65;;;9.60;;
64712;SDS011;51140;45.340;5.980;2023-02-08T00:18:29;25.85;;;9.65;;
64712;SDS011;51140;45.340;5.980;2023-02-08T00:20:54;19.55;;;9.50;;
64712;SDS011;51140;45.340;5.980;2023-02-08T00:23:21;17.20;;;8.85;;
64712;SDS011;51140;45.340;5.980;2023-02-08T00:25:47;19.30;;;8.77;;
64712;SDS011;51140;45.340;5.980;2023-02-08T00:28:13;15.38;;;8.45;;
64712;SDS011;51140;45.340;5.980;2023-02-08T00:30:40;18.30;;;9.45;;
64712;SDS011;51140;45.340;5.980;2023-02-08T00:33:06;19.27;;;8.63;;
64712;SDS011;51140;45.340;5.980;2023-02-08T00:35:32;17.10;;;8.57;;
64712;SDS011;51140;45.340;5.980;2023-02-08T00:37:58;19.98;;;9.80;;
64712;SDS011;51140;45.340;5.980;2023-02-08T00:40:24;19.90;;;9.45;;
64712;SDS011;51140;45.340;5.980;2023-02-08T00:42:50;19.70;;;9.68;;
64712;SDS011;51140;45.340;5.980;2023-02-08T00:45:15;22.35;;;10.55;;
64712;SDS011;51140;45.340;5.980;2023-02-08T00:47:41;19.83;;;9.35;;
64712;SDS011;51140;45.340;5.980;2023-02-08T00:50:07;20.58;;;9.65;;
64712;SDS011;51140;45.340;5.980;2023-02-08T00:52:33;17.15;;;8.60;;
64712;SDS011;51140;45.340;5.980;2023-02-08T00:54:59;18.20;;;9.35;;
64712;SDS011;51140;45.340;5.980;2023-02-08T00:57:24;18.13;;;9.30;;
64712;SDS011;51140;45.340;5.980;2023-02-08T00:59:49;16.20;;;8.35;;
64712;SDS011;51140;45.340;5.980;2023-02-08T01:02:15;16.48;;;8.70;;
64712;SDS011;51140;45.340;5.980;2023-02-08T01:04:40;17.83;;;9.20;;
64712;SDS011;51140;45.340;5.980;2023-02-08T01:07:06;20.38;;;9.05;;
64712;SDS011;51140;45.340;5.980;2023-02-08T01:09:32;19.52;;;9.05;;
64712;SDS011;51140;45.340;5.980;2023-02-08T01:11:57;21.55;;;9.20;;
64712;SDS011;51140;45.340;5.980;2023-02-08T01:14:23;18.58;;;8.60;;
64712;SDS011;51140;45.340;5.980;2023-02-08T01:16:49;17.30;;;9.02;;
64712;SDS011;51140;45.340;5.980;2023-02-08T01:19:14;19.25;;;9.18;;
64712;SDS011;51140;45.340;5.980;2023-02-08T01:21:40;20.58;;;9.55;;
64712;SDS011;51140;45.340;5.980;2023-02-08T01:24:07;17.60;;;8.88;;
64712;SDS011;51140;45.340;5.980;2023-02-08T01:26:33;20.52;;;9.18;;
64712;SDS011;51140;45.340;5.980;2023-02-08T01:29:00;15.95;;;8.68;;
64712;SDS011;51140;45.340;5.980;2023-02-08T01:31:26;22.08;;;9.30;;
64712;SDS011;51140;45.340;5.980;2023-02-08T01:33:54;21.50;;;9.27;;
64712;SDS011;51140;45.340;5.980;2023-02-08T01:36:20;17.98;;;9.82;;
64712;SDS011;51140;45.340;5.980;2023-02-08T01:38:46;17.63;;;8.52;;
64712;SDS011;51140;45.340;5.980;2023-02-08T01:41:16;19.92;;;9.93;;
64712;SDS011;51140;45.340;5.980;2023-02-08T01:46:27;19.48;;;9.07;;
64712;SDS011;51140;45.340;5.980;2023-02-08T01:48:54;18.30;;;9.13;;
64712;SDS011;51140;45.340;5.980;2023-02-08T01:51:24;20.75;;;10.98;;
64712;SDS011;51140;45.340;5.980;2023-02-08T01:53:53;21.30;;;9.65;;
64712;SDS011;51140;45.340;5.980;2023-02-08T01:56:28;21.45;;;10.15;;
64712;SDS011;51140;45.340;5.980;2023-02-08T01:59:00;19.58;;;9.63;;
64712;SDS011;51140;45.340;5.980;2023-02-08T02:01:29;17.98;;;9.05;;
64712;SDS011;51140;45.340;5.980;2023-02-08T02:03:56;20.63;;;9.20;;
64712;SDS011;51140;45.340;5.980;2023-02-08T02:06:27;22.33;;;11.38;;
64712;SDS011;51140;45.340;5.980;2023-02-08T02:11:52;20.80;;;9.85;;
64712;SDS011;51140;45.340;5.980;2023-02-08T02:14:18;23.20;;;11.70;;
64712;SDS011;51140;45.340;5.980;2023-02-08T02:16:44;22.60;;;11.15;;
64712;SDS011;51140;45.340;5.980;2023-02-08T02:19:12;19.45;;;10.32;;
64712;SDS011;51140;45.340;5.980;2023-02-08T02:21:57;19.63;;;9.90;;
64712;SDS011;51140;45.340;5.980;2023-02-08T02:24:54;21.17;;;10.32;;
64712;SDS011;51140;45.340;5.980;2023-02-08T02:27:30;21.25;;;10.73;;
64712;SDS011;51140;45.340;5.980;2023-02-08T02:33:05;21.70;;;10.43;;
64712;SDS011;51140;45.340;5.980;2023-02-08T02:38:10;22.48;;;10.90;;
64712;SDS011;51140;45.340;5.980;2023-02-08T02:44:03;20.88;;;10.70;;
64712;SDS011;51140;45.340;5.980;2023-02-08T02:46:41;20.20;;;10.40;;
64712;SDS011;51140;45.340;5.980;2023-02-08T02:49:17;21.35;;;10.00;;
64712;SDS011;51140;45.340;5.980;2023-02-08T02:51:53;20.52;;;10.15;;
64712;SDS011;51140;45.340;5.980;2023-02-08T02:56:51;20.83;;;10.70;;
64712;SDS011;51140;45.340;5.980;2023-02-08T02:59:22;19.65;;;9.60;;
64712;SDS011;51140;45.340;5.980;2023-02-08T03:01:49;19.88;;;9.70;;
64712;SDS011;51140;45.340;5.980;2023-02-08T03:18:01;17.90;;;9.05;;
64712;SDS011;51140;45.340;5.980;2023-02-08T03:20:38;19.83;;;9.45;;
64712;SDS011;51140;45.340;5.980;2023-02-08T03:23:08;20.48;;;10.43;;
64712;SDS011;51140;45.340;5.980;2023-02-08T03:25:54;26.10;;;11.93;;
64712;SDS011;51140;45.340;5.980;2023-02-08T03:28:27;29.15;;;13.43;;
64712;SDS011;51140;45.340;5.980;2023-02-08T03:31:04;34.13;;;14.88;;
64712;SDS011;51140;45.340;5.980;2023-02-08T03:33:35;43.28;;;18.65;;
64712;SDS011;51140;45.340;5.980;2023-02-08T03:36:23;32.47;;;15.02;;
64712;SDS011;51140;45.340;5.980;2023-02-08T03:38:53;25.27;;;10.82;;
64712;SDS011;51140;45.340;5.980;2023-02-08T03:41:25;21.65;;;10.18;;
64712;SDS011;51140;45.340;5.980;2023-02-08T03:43:57;23.45;;;11.88;;
64712;SDS011;51140;45.340;5.980;2023-02-08T03:46:29;24.70;;;11.50;;
64712;SDS011;51140;45.340;5.980;2023-02-08T03:48:58;20.55;;;10.20;;
64712;SDS011;51140;45.340;5.980;2023-02-08T03:51:28;22.85;;;10.85;;
64712;SDS011;51140;45.340;5.980;2023-02-08T03:53:55;19.10;;;9.27;;
64712;SDS011;51140;45.340;5.980;2023-02-08T03:56:29;19.55;;;9.38;;
64712;SDS011;51140;45.340;5.980;2023-02-08T03:59:01;21.05;;;10.85;;
64712;SDS011;51140;45.340;5.980;2023-02-08T04:01:32;23.45;;;10.50;;
64712;SDS011;51140;45.340;5.980;2023-02-08T04:04:05;21.05;;;10.30;;
64712;SDS011;51140;45.340;5.980;2023-02-08T04:06:30;22.73;;;10.13;;
64712;SDS011;51140;45.340;5.980;2023-02-08T04:08:56;22.30;;;10.13;;
64712;SDS011;51140;45.340;5.980;2023-02-08T04:11:21;21.05;;;9.82;;
64712;SDS011;51140;45.340;5.980;2023-02-08T04:13:47;20.10;;;9.25;;
64712;SDS011;51140;45.340;5.980;2023-02-08T04:16:12;19.92;;;9.70;;
64712;SDS011;51140;45.340;5.980;2023-02-08T04:18:38;21.45;;;9.88;;
64712;SDS011;51140;45.340;5.980;2023-02-08T04:21:04;19.48;;;9.73;;
64712;SDS011;51140;45.340;5.980;2023-02-08T04:23:30;18.70;;;9.43;;
64712;SDS011;51140;45.340;5.980;2023-02-08T04:25:55;20.38;;;10.18;;
64712;SDS011;51140;45.340;5.980;2023-02-08T04:28:20;16.98;;;8.63;;
64712;SDS011;51140;45.340;5.980;2023-02-08T04:30:46;19.40;;;9.15;;
64712;SDS011;51140;45.340;5.980;2023-02-08T04:33:11;18.17;;;9.18;;
64712;SDS011;51140;45.340;5.980;2023-02-08T04:35:39;20.92;;;9.48;;
64712;SDS011;51140;45.340;5.980;2023-02-08T04:38:05;17.40;;;8.80;;
64712;SDS011;51140;45.340;5.980;2023-02-08T04:40:31;21.95;;;9.55;;
64712;SDS011;51140;45.340;5.980;2023-02-08T04:42:57;18.58;;;8.80;;
64712;SDS011;51140;45.340;5.980;2023-02-08T04:45:22;19.55;;;9.20;;
64712;SDS011;51140;45.340;5.980;2023-02-08T04:47:49;21.70;;;9.18;;
64712;SDS011;51140;45.340;5.980;2023-02-08T04:50:14;21.25;;;10.73;;
64712;SDS011;51140;45.340;5.980;2023-02-08T04:52:40;19.25;;;9.90;;
64712;SDS011;51140;45.340;5.980;2023-02-08T04:55:05;20.45;;;9.80;;
64712;SDS011;51140;45.340;5.980;2023-02-08T04:57:31;21.17;;;9.90;;
64712;SDS011;51140;45.340;5.980;2023-02-08T04:59:56;21.27;;;9.52;;
64712;SDS011;51140;45.340;5.980;2023-02-08T05:02:22;19.90;;;9.13;;
64712;SDS011;51140;45.340;5.980;2023-02-08T05:04:47;20.17;;;9.48;;
64712;SDS011;51140;45.340;5.980;2023-02-08T05:07:12;20.90;;;9.57;;
64712;SDS011;51140;45.340;5.980;2023-02-08T05:09:38;24.25;;;12.82;;
64712;SDS011;51140;45.340;5.980;2023-02-08T05:12:03;22.25;;;12.20;;
64712;SDS011;51140;45.340;5.980;2023-02-08T05:14:29;25.17;;;11.43;;
64712;SDS011;51140;45.340;5.980;2023-02-08T05:16:54;24.55;;;11.43;;
64712;SDS011;51140;45.340;5.980;2023-02-08T05:19:20;21.85;;;10.15;;
64712;SDS011;51140;45.340;5.980;2023-02-08T05:21:45;18.58;;;9.82;;
64712;SDS011;51140;45.340;5.980;2023-02-08T05:24:10;26.05;;;11.88;;
64712;SDS011;51140;45.340;5.980;2023-02-08T05:26:37;24.92;;;12.82;;
64712;SDS011;51140;45.340;5.980;2023-02-08T05:29:03;23.58;;;10.73;;
64712;SDS011;51140;45.340;5.980;2023-02-08T05:31:29;23.77;;;11.32;;
64712;SDS011;51140;45.340;5.980;2023-02-08T05:33:54;24.65;;;12.23;;
64712;SDS011;51140;45.340;5.980;2023-02-08T05:36:20;25.10;;;12.13;;
64712;SDS011;51140;45.340;5.980;2023-02-08T05:38:47;27.35;;;13.23;;
64712;SDS011;51140;45.340;5.980;2023-02-08T05:41:13;24.23;;;11.27;;
64712;SDS011;51140;45.340;5.980;2023-02-08T05:43:38;23.67;;;10.90;;
64712;SDS011;51140;45.340;5.980;2023-02-08T05:46:04;27.88;;;12.55;;
64712;SDS011;51140;45.340;5.980;2023-02-08T05:48:30;23.80;;;11.77;;
64712;SDS011;51140;45.340;5.980;2023-02-08T05:50:56;26.15;;;12.38;;
64712;SDS011;51140;45.340;5.980;2023-02-08T05:53:22;28.45;;;12.27;;
64712;SDS011;51140;45.340;5.980;2023-02-08T05:55:47;26.98;;;11.90;;
64712;SDS011;51140;45.340;5.980;2023-02-08T05:58:13;22.60;;;10.85;;
64712;SDS011;51140;45.340;5.980;2023-02-08T06:00:40;24.58;;;11.07;;
64712;SDS011;51140;45.340;5.980;2023-02-08T06:03:05;24.05;;;11.73;;
64712;SDS011;51140;45.340;5.980;2023-02-08T06:05:31;24.38;;;11.75;;
64712;SDS011;51140;45.340;5.980;2023-02-08T06:07:56;23.67;;;11.63;;
64712;SDS011;51140;45.340;5.980;2023-02-08T06:10:22;24.38;;;11.38;;
64712;SDS011;51140;45.340;5.980;2023-02-08T06:12:47;22.27;;;10.93;;
64712;SDS011;51140;45.340;5.980;2023-02-08T06:15:12;22.77;;;10.68;;
64712;SDS011;51140;45.340;5.980;2023-02-08T06:17:38;20.80;;;10.27;;
64712;SDS011;51140;45.340;5.980;2023-02-08T06:20:03;22.15;;;10.80;;
64712;SDS011;51140;45.340;5.980;2023-02-08T06:22:29;21.55;;;10.38;;
64712;SDS011;51140;45.340;5.980;2023-02-08T06:24:54;22.17;;;10.07;;
64712;SDS011;51140;45.340;5.980;2023-02-08T06:27:20;20.88;;;10.63;;
64712;SDS011;51140;45.340;5.980;2023-02-08T06:29:45;24.13;;;11.20;;
64712;SDS011;51140;45.340;5.980;2023-02-08T06:32:11;22.05;;;9.93;;
64712;SDS011;51140;45.340;5.980;2023-02-08T06:34:36;20.75;;;9.63;;
64712;SDS011;51140;45.340;5.980;2023-02-08T06:37:01;35.22;;;13.55;;
64712;SDS011;51140;45.340;5.980;2023-02-08T06:39:29;29.05;;;11.35;;
64712;SDS011;51140;45.340;5.980;2023-02-08T06:41:55;31.73;;;14.10;;
64712;SDS011;51140;45.340;5.980;2023-02-08T06:44:21;28.65;;;13.82;;
64712;SDS011;51140;45.340;5.980;2023-02-08T06:46:46;28.55;;;11.63;;
64712;SDS011;51140;45.340;5.980;2023-02-08T06:49:11;25.17;;;12.30;;
64712;SDS011;51140;45.340;5.980;2023-02-08T06:51:37;21.80;;;10.95;;
64712;SDS011;51140;45.340;5.980;2023-02-08T06:54:02;20.98;;;9.95;;
64712;SDS011;51140;45.340;5.980;2023-02-08T06:56:28;23.33;;;11.40;;
64712;SDS011;51140;45.340;5.980;2023-02-08T06:58:54;21.00;;;9.98;;
64712;SDS011;51140;45.340;5.980;2023-02-08T07:01:20;23.23;;;10.18;;
64712;SDS011;51140;45.340;5.980;2023-02-08T07:03:46;22.27;;;10.77;;
64712;SDS011;51140;45.340;5.980;2023-02-08T07:06:15;25.13;;;13.80;;
64712;SDS011;51140;45.340;5.980;2023-02-08T07:08:42;21.13;;;10.60;;
64712;SDS011;51140;45.340;5.980;2023-02-08T07:11:09;22.30;;;11.13;;
64712;SDS011;51140;45.340;5.980;2023-02-08T07:13:36;28.02;;;13.82;;
64712;SDS011;51140;45.340;5.980;2023-02-08T07:16:05;25.55;;;11.52;;
64712;SDS011;51140;45.340;5.980;2023-02-08T07:18:32;24.05;;;12.23;;
64712;SDS011;51140;45.340;5.980;2023-02-08T07:20:57;26.85;;;12.52;;
64712;SDS011;51140;45.340;5.980;2023-02-08T07:23:23;24.60;;;12.60;;
64712;SDS011;51140;45.340;5.980;2023-02-08T07:26:21;24.40;;;12.32;;
64712;SDS011;51140;45.340;5.980;2023-02-08T07:28:40;22.83;;;11.70;;
64712;SDS011;51140;45.340;5.980;2023-02-08T07:31:07;23.20;;;11.85;;
64712;SDS011;51140;45.340;5.980;2023-02-08T07:33:34;28.30;;;12.48;;
64712;SDS011;51140;45.340;5.980;2023-02-08T07:36:00;28.52;;;11.38;;
64712;SDS011;51140;45.340;5.980;2023-02-08T07:38:25;25.73;;;13.07;;
64712;SDS011;51140;45.340;5.980;2023-02-08T07:40:51;29.02;;;12.85;;
64712;SDS011;51140;45.340;5.980;2023-02-08T07:43:16;25.50;;;12.05;;
64712;SDS011;51140;45.340;5.980;2023-02-08T07:45:42;30.75;;;12.43;;
64712;SDS011;51140;45.340;5.980;2023-02-08T07:48:07;26.50;;;12.63;;
64712;SDS011;51140;45.340;5.980;2023-02-08T07:50:32;25.85;;;13.15;;
64712;SDS011;51140;45.340;5.980;2023-02-08T07:52:58;25.33;;;12.45;;
64712;SDS011;51140;45.340;5.980;2023-02-08T07:55:23;25.33;;;12.85;;
64712;SDS011;51140;45.340;5.980;2023-02-08T07:57:49;49.40;;;15.68;;
64712;SDS011;51140;45.340;5.980;2023-02-08T08:00:15;46.13;;;15.30;;
64712;SDS011;51140;45.340;5.980;2023-02-08T08:02:42;55.03;;;17.65;;
64712;SDS011;51140;45.340;5.980;2023-02-08T08:05:08;43.25;;;16.35;;
64712;SDS011;51140;45.340;5.980;2023-02-08T08:07:34;43.20;;;17.13;;
64712;SDS011;51140;45.340;5.980;2023-02-08T08:10:00;40.45;;;18.27;;
64712;SDS011;51140;45.340;5.980;2023-02-08T08:12:26;38.33;;;17.50;;
64712;SDS011;51140;45.340;5.980;2023-02-08T08:14:51;32.45;;;17.20;;
64712;SDS011;51140;45.340;5.980;2023-02-08T08:17:17;39.88;;;17.52;;
64712;SDS011;51140;45.340;5.980;2023-02-08T08:19:43;35.75;;;17.23;;
64712;SDS011;51140;45.340;5.980;2023-02-08T08:22:08;36.17;;;16.58;;
64712;SDS011;51140;45.340;5.980;2023-02-08T08:24:34;33.55;;;15.43;;
64712;SDS011;51140;45.340;5.980;2023-02-08T08:27:00;32.05;;;15.63;;
64712;SDS011;51140;45.340;5.980;2023-02-08T08:29:26;95.38;;;23.98;;
64712;SDS011;51140;45.340;5.980;2023-02-08T08:31:52;46.78;;;17.45;;
64712;SDS011;51140;45.340;5.980;2023-02-08T08:34:17;41.78;;;18.27;;
64712;SDS011;51140;45.340;5.980;2023-02-08T08:36:42;38.13;;;18.63;;
64712;SDS011;51140;45.340;5.980;2023-02-08T08:39:08;36.28;;;17.13;;
64712;SDS011;51140;45.340;5.980;2023-02-08T08:41:34;34.33;;;17.52;;
64712;SDS011;51140;45.340;5.980;2023-02-08T08:44:01;38.50;;;17.48;;
64712;SDS011;51140;45.340;5.980;2023-02-08T08:46:26;32.17;;;17.02;;
64712;SDS011;51140;45.340;5.980;2023-02-08T08:48:52;39.00;;;16.75;;
64712;SDS011;51140;45.340;5.980;2023-02-08T08:51:17;32.17;;;16.10;;
64712;SDS011;51140;45.340;5.980;2023-02-08T08:53:43;33.03;;;15.85;;
64712;SDS011;51140;45.340;5.980;2023-02-08T08:56:08;34.30;;;17.10;;
64712;SDS011;51140;45.340;5.980;2023-02-08T08:58:34;37.00;;;17.55;;
64712;SDS011;51140;45.340;5.980;2023-02-08T09:00:59;31.10;;;15.73;;
64712;SDS011;51140;45.340;5.980;2023-02-08T09:03:25;28.67;;;15.70;;
64712;SDS011;51140;45.340;5.980;2023-02-08T09:05:51;32.83;;;16.58;;
64712;SDS011;51140;45.340;5.980;2023-02-08T09:08:17;32.42;;;15.95;;
64712;SDS011;51140;45.340;5.980;2023-02-08T09:10:42;32.92;;;16.73;;
64712;SDS011;51140;45.340;5.980;2023-02-08T09:13:08;34.35;;;17.02;;
64712;SDS011;51140;45.340;5.980;2023-02-08T09:15:37;33.10;;;17.45;;
64712;SDS011;51140;45.340;5.980;2023-02-08T09:18:02;31.63;;;17.13;;
64712;SDS011;51140;45.340;5.980;2023-02-08T09:20:28;31.60;;;15.15;;
64712;SDS011;51140;45.340;5.980;2023-02-08T09:22:54;26.55;;;12.77;;
64712;SDS011;51140;45.340;5.980;2023-02-08T09:25:19;25.33;;;12.60;;
64712;SDS011;51140;45.340;5.980;2023-02-08T09:27:44;28.58;;;14.50;;
64712;SDS011;51140;45.340;5.980;2023-02-08T09:30:10;26.27;;;13.35;;
64712;SDS011;51140;45.340;5.980;2023-02-08T09:32:35;25.05;;;12.05;;
64712;SDS011;51140;45.340;5.980;2023-02-08T09:35:03;22.55;;;11.57;;
64712;SDS011;51140;45.340;5.980;2023-02-08T09:37:30;22.88;;;10.57;;
64712;SDS011;51140;45.340;5.980;2023-02-08T09:39:55;21.38;;;10.50;;
64712;SDS011;51140;45.340;5.980;2023-02-08T09:42:34;24.48;;;10.85;;
64712;SDS011;51140;45.340;5.980;2023-02-08T09:51:21;19.70;;;9.48;;
64712;SDS011;51140;45.340;5.980;2023-02-08T09:54:00;19.13;;;9.20;;
64712;SDS011;51140;45.340;5.980;2023-02-08T09:56:30;20.15;;;9.57;;
64712;SDS011;51140;45.340;5.980;2023-02-08T09:59:04;22.65;;;10.95;;
64712;SDS011;51140;45.340;5.980;2023-02-08T10:01:31;24.25;;;11.10;;
64712;SDS011;51140;45.340;5.980;2023-02-08T10:04:03;18.80;;;9.93;;
64712;SDS011;51140;45.340;5.980;2023-02-08T10:06:32;19.73;;;9.80;;
64712;SDS011;51140;45.340;5.980;2023-02-08T10:08:59;28.83;;;15.25;;
64712;SDS011;51140;45.340;5.980;2023-02-08T10:22:34;32.85;;;16.90;;
64712;SDS011;51140;45.340;5.980;2023-02-08T10:25:14;35.63;;;16.58;;
64712;SDS011;51140;45.340;5.980;2023-02-08T10:27:48;31.83;;;17.38;;
64712;SDS011;51140;45.340;5.980;2023-02-08T10:35:46;25.33;;;13.13;;
64712;SDS011;51140;45.340;5.980;2023-02-08T10:40:42;29.58;;;16.55;;
64712;SDS011;51140;45.340;5.980;2023-02-08T10:43:54;29.23;;;16.80;;
64712;SDS011;51140;45.340;5.980;2023-02-08T10:46:05;30.17;;;17.13;;
64712;SDS011;51140;45.340;5.980;2023-02-08T10:48:52;33.25;;;17.35;;
64712;SDS011;51140;45.340;5.980;2023-02-08T10:51:32;32.47;;;19.77;;
64712;SDS011;51140;45.340;5.980;2023-02-08T10:53:58;32.63;;;19.60;;
64712;SDS011;51140;45.340;5.980;2023-02-08T10:56:39;33.72;;;18.13;;
64712;SDS011;51140;45.340;5.980;2023-02-08T10:59:08;31.13;;;18.02;;
64712;SDS011;51140;45.340;5.980;2023-02-08T11:01:46;35.55;;;21.00;;
64712;SDS011;51140;45.340;5.980;2023-02-08T11:04:12;34.85;;;19.85;;
64712;SDS011;51140;45.340;5.980;2023-02-08T11:06:40;34.30;;;20.08;;
64712;SDS011;51140;45.340;5.980;2023-02-08T11:09:18;34.10;;;19.80;;
64712;SDS011;51140;45.340;5.980;2023-02-08T11:11:44;38.28;;;21.48;;
64712;SDS011;51140;45.340;5.980;2023-02-08T11:14:15;36.63;;;19.85;;
64712;SDS011;51140;45.340;5.980;2023-02-08T11:16:49;37.10;;;19.92;;
64712;SDS011;51140;45.340;5.980;2023-02-08T11:19:35;35.03;;;19.88;;
64712;SDS011;51140;45.340;5.980;2023-02-08T11:22:19;34.50;;;20.10;;
64712;SDS011;51140;45.340;5.980;2023-02-08T11:24:55;36.35;;;20.60;;
64712;SDS011;51140;45.340;5.980;2023-02-08T11:27:35;37.37;;;20.67;;
64712;SDS011;51140;45.340;5.980;2023-02-08T11:32:40;40.50;;;21.02;;
64712;SDS011;51140;45.340;5.980;2023-02-08T11:35:25;35.28;;;19.95;;
64712;SDS011;51140;45.340;5.980;2023-02-08T11:37:55;35.10;;;20.98;;
64712;SDS011;51140;45.340;5.980;2023-02-08T11:40:23;33.63;;;19.65;;
64712;SDS011;51140;45.340;5.980;2023-02-08T11:43:00;36.70;;;21.35;;
64712;SDS011;51140;45.340;5.980;2023-02-08T11:45:28;37.33;;;20.70;;
64712;SDS011;51140;45.340;5.980;2023-02-08T11:47:56;36.85;;;19.80;;
64712;SDS011;51140;45.340;5.980;2023-02-08T11:52:54;31.52;;;18.92;;
64712;SDS011;51140;45.340;5.980;2023-02-08T11:55:24;38.17;;;20.30;;
64712;SDS011;51140;45.340;5.980;2023-02-08T12:00:25;30.50;;;17.55;;
64712;SDS011;51140;45.340;5.980;2023-02-08T12:11:42;30.92;;;16.55;;
64712;SDS011;51140;45.340;5.980;2023-02-08T12:25:48;30.75;;;16.90;;
64712;SDS011;51140;45.340;5.980;2023-02-08T12:45:32;32.67;;;17.52;;
64712;SDS011;51140;45.340;5.980;2023-02-08T12:50:47;28.25;;;17.30;;
64712;SDS011;51140;45.340;5.980;2023-02-08T12:53:25;29.50;;;17.55;;
64712;SDS011;51140;45.340;5.980;2023-02-08T12:55:55;29.35;;;17.23;;
64712;SDS011;51140;45.340;5.980;2023-02-08T13:01:06;27.83;;;17.20;;
64712;SDS011;51140;45.340;5.980;2023-02-08T13:03:41;28.60;;;16.23;;
64712;SDS011;51140;45.340;5.980;2023-02-08T13:06:24;38.75;;;17.27;;
64712;SDS011;51140;45.340;5.980;2023-02-08T13:08:56;37.05;;;17.80;;
64712;SDS011;51140;45.340;5.980;2023-02-08T13:11:29;30.38;;;17.02;;
64712;SDS011;51140;45.340;5.980;2023-02-08T13:14:47;34.72;;;16.88;;
64712;SDS011;51140;45.340;5.980;2023-02-08T13:17:08;26.77;;;15.98;;
64712;SDS011;51140;45.340;5.980;2023-02-08T13:22:33;24.75;;;14.57;;
64712;SDS011;51140;45.340;5.980;2023-02-08T13:25:04;31.02;;;15.50;;
64712;SDS011;51140;45.340;5.980;2023-02-08T13:27:38;23.33;;;13.18;;
64712;SDS011;51140;45.340;5.980;2023-02-08T13:30:04;28.42;;;16.10;;
64712;SDS011;51140;45.340;5.980;2023-02-08T13:32:34;26.77;;;16.13;;
64712;SDS011;51140;45.340;5.980;2023-02-08T13:35:12;30.83;;;15.15;;
64712;SDS011;51140;45.340;5.980;2023-02-08T13:37:42;27.45;;;14.05;;
64712;SDS011;51140;45.340;5.980;2023-02-08T13:40:20;26.88;;;13.23;;
64712;SDS011;51140;45.340;5.980;2023-02-08T13:43:02;25.35;;;15.23;;
64712;SDS011;51140;45.340;5.980;2023-02-08T13:48:02;25.10;;;13.90;;
64712;SDS011;51140;45.340;5.980;2023-02-08T13:52:58;26.40;;;14.20;;
64712;SDS011;51140;45.340;5.980;2023-02-08T13:57:58;19.55;;;11.20;;
64712;SDS011;51140;45.340;5.980;2023-02-08T14:00:29;23.55;;;13.32;;
64712;SDS011;51140;45.340;5.980;2023-02-08T14:08:33;22.05;;;13.25;;
64712;SDS011;51140;45.340;5.980;2023-02-08T14:11:10;22.80;;;12.60;;
64712;SDS011;51140;45.340;5.980;2023-02-08T14:16:45;22.75;;;13.10;;
64712;SDS011;51140;45.340;5.980;2023-02-08T14:19:31;21.85;;;12.50;;
64712;SDS011;51140;45.340;5.980;2023-02-08T14:24:31;19.13;;;10.93;;
64712;SDS011;51140;45.340;5.980;2023-02-08T14:27:10;20.02;;;10.85;;
64712;SDS011;51140;45.340;5.980;2023-02-08T14:29:41;18.08;;;10.77;;
64712;SDS011;51140;45.340;5.980;2023-02-08T14:32:07;27.23;;;17.30;;
64712;SDS011;51140;45.340;5.980;2023-02-08T14:34:34;20.15;;;12.05;;
64712;SDS011;51140;45.340;5.980;2023-02-08T14:39:34;18.23;;;11.20;;
64712;SDS011;51140;45.340;5.980;2023-02-08T14:42:02;20.65;;;9.68;;
64712;SDS011;51140;45.340;5.980;2023-02-08T14:49:48;18.15;;;10.40;;
64712;SDS011;51140;45.340;5.980;2023-02-08T14:52:21;18.92;;;10.00;;
64712;SDS011;51140;45.340;5.980;2023-02-08T14:54:52;16.30;;;9.35;;
64712;SDS011;51140;45.340;5.980;2023-02-08T14:57:30;21.02;;;10.85;;
64712;SDS011;51140;45.340;5.980;2023-02-08T14:59:59;19.05;;;10.68;;
64712;SDS011;51140;45.340;5.980;2023-02-08T15:02:28;19.25;;;11.43;;
64712;SDS011;51140;45.340;5.980;2023-02-08T15:04:56;25.42;;;11.05;;
64712;SDS011;51140;45.340;5.980;2023-02-08T15:09:47;22.48;;;11.38;;
64712;SDS011;51140;45.340;5.980;2023-02-08T15:14:48;20.33;;;10.02;;
64712;SDS011;51140;45.340;5.980;2023-02-08T15:19:57;22.33;;;12.85;;
64712;SDS011;51140;45.340;5.980;2023-02-08T15:22:28;22.00;;;12.85;;
64712;SDS011;51140;45.340;5.980;2023-02-08T15:24:57;20.48;;;10.57;;
64712;SDS011;51140;45.340;5.980;2023-02-08T15:27:32;20.92;;;12.10;;
64712;SDS011;51140;45.340;5.980;2023-02-08T15:29:58;18.80;;;10.40;;
64712;SDS011;51140;45.340;5.980;2023-02-08T15:32:25;16.98;;;9.60;;
64712;SDS011;51140;45.340;5.980;2023-02-08T15:34:59;22.70;;;11.00;;
64712;SDS011;51140;45.340;5.980;2023-02-08T15:37:29;23.30;;;12.48;;
64712;SDS011;51140;45.340;5.980;2023-02-08T15:39:57;25.77;;;12.48;;
64712;SDS011;51140;45.340;5.980;2023-02-08T15:42:25;22.35;;;11.88;;
64712;SDS011;51140;45.340;5.980;2023-02-08T15:44:55;26.67;;;13.02;;
64712;SDS011;51140;45.340;5.980;2023-02-08T15:47:25;22.83;;;12.38;;
64712;SDS011;51140;45.340;5.980;2023-02-08T15:49:53;25.25;;;13.07;;
64712;SDS011;51140;45.340;5.980;2023-02-08T15:52:23;23.90;;;13.20;;
64712;SDS011;51140;45.340;5.980;2023-02-08T15:54:53;25.27;;;12.27;;
64712;SDS011;51140;45.340;5.980;2023-02-08T15:57:33;24.38;;;14.00;;
64712;SDS011;51140;45.340;5.980;2023-02-08T16:00:05;21.45;;;12.25;;
64712;SDS011;51140;45.340;5.980;2023-02-08T16:02:37;22.77;;;12.20;;
64712;SDS011;51140;45.340;5.980;2023-02-08T16:05:09;23.45;;;13.25;;
64712;SDS011;51140;45.340;5.980;2023-02-08T16:07:42;26.27;;;13.65;;
64712;SDS011;51140;45.340;5.980;2023-02-08T16:10:18;25.10;;;14.05;;
64712;SDS011;51140;45.340;5.980;2023-02-08T16:12:49;25.60;;;15.18;;
64712;SDS011;51140;45.340;5.980;2023-02-08T16:17:58;26.42;;;14.35;;
64712;SDS011;51140;45.340;5.980;2023-02-08T16:22:56;39.33;;;21.13;;
64712;SDS011;51140;45.340;5.980;2023-02-08T16:25:44;28.20;;;18.17;;
64712;SDS011;51140;45.340;5.980;2023-02-08T16:28:29;29.90;;;15.65;;
64712;SDS011;51140;45.340;5.980;2023-02-08T16:30:59;20.20;;;9.80;;
64712;SDS011;51140;45.340;5.980;2023-02-08T16:33:27;22.17;;;13.00;;
64712;SDS011;51140;45.340;5.980;2023-02-08T16:35:54;18.02;;;9.57;;
64712;SDS011;51140;45.340;5.980;2023-02-08T16:38:26;19.40;;;9.05;;
64712;SDS011;51140;45.340;5.980;2023-02-08T16:40:54;17.90;;;8.95;;
64712;SDS011;51140;45.340;5.980;2023-02-08T16:43:29;23.73;;;11.30;;
64712;SDS011;51140;45.340;5.980;2023-02-08T16:48:41;17.20;;;9.40;;
64712;SDS011;51140;45.340;5.980;2023-02-08T16:51:12;23.65;;;12.60;;
64712;SDS011;51140;45.340;5.980;2023-02-08T16:53:40;20.13;;;9.60;;
64712;SDS011;51140;45.340;5.980;2023-02-08T16:56:06;21.58;;;8.88;;
64712;SDS011;51140;45.340;5.980;2023-02-08T16:58:32;19.85;;;9.73;;
64712;SDS011;51140;45.340;5.980;2023-02-08T17:00:58;22.05;;;9.25;;
64712;SDS011;51140;45.340;5.980;2023-02-08T17:03:24;15.63;;;7.60;;
64712;SDS011;51140;45.340;5.980;2023-02-08T17:05:49;17.23;;;8.40;;
64712;SDS011;51140;45.340;5.980;2023-02-08T17:08:16;16.63;;;7.72;;